createdAt,value
2018-04-19T00:00:40.536Z,54.76
2018-04-19T00:03:08.970Z,54.60
2018-04-19T00:05:37.338Z,55.33
2018-04-19T00:08:05.740Z,55.38
2018-04-19T00:10:34.213Z,55.08
2018-04-19T00:13:02.833Z,55.18
2018-04-19T00:15:32.101Z,55.18
2018-04-19T00:18:01.282Z,55.35
2018-04-19T00:20:29.694Z,55.40
2018-04-19T00:22:58.824Z,55.55
2018-04-19T00:25:27.308Z,55.77
2018-04-19T00:27:55.793Z,55.75
2018-04-19T00:30:24.170Z,56.35
2018-04-19T00:32:52.656Z,56.26
2018-04-19T00:35:21.085Z,56.08
2018-04-19T00:37:49.865Z,56.07
2018-04-19T00:40:18.261Z,56.16
2018-04-19T00:42:47.439Z,56.03
2018-04-19T00:45:15.814Z,56.08
2018-04-19T00:47:44.171Z,56.57
2018-04-19T00:50:12.636Z,56.20
2018-04-19T00:52:58.851Z,56.03
2018-04-19T00:55:27.245Z,56.23
2018-04-19T00:57:55.630Z,56.41
2018-04-19T01:00:23.975Z,56.19
2018-04-19T01:02:52.357Z,56.40
2018-04-19T01:05:20.708Z,56.39
2018-04-19T01:07:49.061Z,56.07
2018-04-19T01:10:18.201Z,56.19
2018-04-19T01:12:46.586Z,56.29
2018-04-19T01:15:15.051Z,56.55
2018-04-19T01:17:43.401Z,56.57
2018-04-19T01:20:12.508Z,56.79
2018-04-19T01:22:40.863Z,56.71
2018-04-19T01:25:09.228Z,56.63
2018-04-19T01:27:37.605Z,56.74
2018-04-19T01:30:05.955Z,56.58
2018-04-19T01:32:34.347Z,56.56
2018-04-19T01:35:02.681Z,56.75
2018-04-19T01:37:31.904Z,57.08
2018-04-19T01:40:00.301Z,57.13
2018-04-19T01:42:28.669Z,57.50
2018-04-19T01:44:57.093Z,57.54
2018-04-19T01:47:26.245Z,57.51
2018-04-19T01:49:54.591Z,57.59
2018-04-19T01:52:22.944Z,57.57
2018-04-19T01:54:51.288Z,57.72
2018-04-19T01:57:19.657Z,57.80
2018-04-19T01:59:48.764Z,57.91
2018-04-19T02:02:17.114Z,57.93
2018-04-19T02:04:45.546Z,57.99
2018-04-19T02:07:14.669Z,58.08
2018-04-19T02:09:43.779Z,58.14
2018-04-19T02:12:12.629Z,58.46
2018-04-19T02:14:40.977Z,58.65
2018-04-19T02:17:09.766Z,58.64
2018-04-19T02:19:38.128Z,58.76
2018-04-19T02:22:06.528Z,58.73
2018-04-19T02:24:34.891Z,58.58
2018-04-19T02:27:03.250Z,58.87
2018-04-19T02:29:31.606Z,58.91
2018-04-19T02:32:01.914Z,59.06
2018-04-19T02:34:30.406Z,59.21
2018-04-19T02:36:59.563Z,59.36
2018-04-19T02:39:27.944Z,59.40
2018-04-19T02:41:56.372Z,59.31
2018-04-19T02:44:25.527Z,59.13
2018-04-19T02:46:53.873Z,59.75
2018-04-19T02:49:22.234Z,59.71
2018-04-19T02:51:51.352Z,59.81
2018-04-19T02:54:19.706Z,59.67
2018-04-19T02:56:49.061Z,59.79
2018-04-19T02:59:17.435Z,59.96
2018-04-19T03:01:45.771Z,60.06
2018-04-19T03:04:14.366Z,60.09
2018-04-19T03:06:43.147Z,60.28
2018-04-19T03:09:11.509Z,60.42
2018-04-19T03:11:40.668Z,60.17
2018-04-19T03:14:09.071Z,60.11
2018-04-19T03:16:38.223Z,60.37
2018-04-19T03:19:06.714Z,60.52
2018-04-19T03:21:35.098Z,60.37
2018-04-19T03:24:03.503Z,60.25
2018-04-19T03:26:31.942Z,60.67
2018-04-19T03:29:00.386Z,60.66
2018-04-19T03:31:28.910Z,60.65
2018-04-19T03:33:57.261Z,60.73
2018-04-19T03:36:25.665Z,61.04
2018-04-19T03:38:54.006Z,61.12
2018-04-19T03:41:23.146Z,61.09
2018-04-19T03:43:51.515Z,61.34
2018-04-19T03:46:19.857Z,61.27
2018-04-19T03:48:49.031Z,61.26
2018-04-19T03:51:17.367Z,61.13
2018-04-19T03:53:45.726Z,61.15
2018-04-19T03:56:14.093Z,61.33
2018-04-19T03:58:42.468Z,61.10
2018-04-19T04:01:11.678Z,61.10
2018-04-19T04:03:39.992Z,61.29
2018-04-19T04:06:08.350Z,61.38
2018-04-19T04:08:36.699Z,61.28
2018-04-19T04:11:05.857Z,61.29
2018-04-19T04:13:34.951Z,61.35
2018-04-19T04:16:03.341Z,61.40
2018-04-19T04:18:49.572Z,61.36
2018-04-19T04:21:18.760Z,61.10
2018-04-19T04:23:53.934Z,61.20
2018-04-19T04:26:22.996Z,61.75
2018-04-19T04:28:52.122Z,61.41
2018-04-19T04:31:20.555Z,61.42
2018-04-19T04:33:49.012Z,61.70
2018-04-19T04:36:17.504Z,61.57
2018-04-19T04:38:45.873Z,61.60
2018-04-19T04:41:14.342Z,61.70
2018-04-19T04:43:42.860Z,61.90
2018-04-19T04:46:12.625Z,61.68
2018-04-19T04:48:41.010Z,61.86
2018-04-19T04:51:09.410Z,61.75
2018-04-19T04:53:37.791Z,61.50
2018-04-19T04:56:06.196Z,61.76
2018-04-19T04:58:35.347Z,61.74
2018-04-19T05:01:03.761Z,61.85
2018-04-19T05:03:32.164Z,61.72
2018-04-19T05:06:01.309Z,62.06
2018-04-19T05:08:30.441Z,62.16
2018-04-19T05:10:59.697Z,61.98
2018-04-19T05:13:28.060Z,61.85
2018-04-19T05:15:56.406Z,61.96
2018-04-19T05:18:24.799Z,62.15
2018-04-19T05:20:53.150Z,62.17
2018-04-19T05:23:22.261Z,61.81
2018-04-19T05:25:51.484Z,61.71
2018-04-19T05:28:19.864Z,61.69
2018-04-19T05:30:48.208Z,61.75
2018-04-19T05:33:16.651Z,61.57
2018-04-19T05:35:45.939Z,61.65
2018-04-19T05:38:14.301Z,61.54
2018-04-19T05:40:42.660Z,61.70
2018-04-19T05:43:11.821Z,61.58
2018-04-19T05:45:40.244Z,61.48
2018-04-19T05:48:10.358Z,61.44
2018-04-19T05:50:42.448Z,61.47
2018-04-19T05:53:10.793Z,61.24
2018-04-19T05:55:39.960Z,60.89
2018-04-19T05:58:08.373Z,60.82
2018-04-19T06:00:37.499Z,60.61
2018-04-19T06:03:06.021Z,60.62
2018-04-19T06:05:35.389Z,60.46
2018-04-19T06:08:03.806Z,60.47
2018-04-19T06:10:32.331Z,60.35
2018-04-19T06:13:00.812Z,60.19
2018-04-19T06:15:29.168Z,59.86
2018-04-19T06:17:58.340Z,59.74
2018-04-19T06:20:26.898Z,59.65
2018-04-19T06:22:55.262Z,59.59
2018-04-19T06:25:23.589Z,59.40
2018-04-19T06:27:52.180Z,59.26
2018-04-19T06:30:20.947Z,59.40
2018-04-19T06:32:49.627Z,59.15
2018-04-19T06:35:18.078Z,59.29
2018-04-19T06:37:46.441Z,58.96
2018-04-19T06:40:14.812Z,58.87
2018-04-19T06:42:43.193Z,58.75
2018-04-19T06:45:11.586Z,58.64
2018-04-19T06:47:39.972Z,58.36
2018-04-19T06:50:08.349Z,58.39
2018-04-19T06:52:37.544Z,58.35
2018-04-19T06:55:06.867Z,58.31
2018-04-19T06:57:35.242Z,58.27
2018-04-19T07:00:04.108Z,58.15
2018-04-19T07:02:33.568Z,57.83
2018-04-19T07:05:01.973Z,57.55
2018-04-19T07:07:31.137Z,57.18
2018-04-19T07:09:59.761Z,57.17
2018-04-19T07:12:28.881Z,57.21
2018-04-19T07:14:57.265Z,56.55
2018-04-19T07:17:25.804Z,56.50
2018-04-19T07:19:54.944Z,56.16
2018-04-19T07:22:25.413Z,55.86
2018-04-19T07:24:54.550Z,55.69
2018-04-19T07:27:22.974Z,55.66
2018-04-19T07:29:51.415Z,55.30
2018-04-19T07:32:19.807Z,54.84
2018-04-19T07:34:48.177Z,54.76
2018-04-19T07:37:16.563Z,54.47
2018-04-19T07:39:45.007Z,53.92
2018-04-19T07:42:14.190Z,53.82
2018-04-19T07:44:43.352Z,53.06
2018-04-19T07:47:11.716Z,52.42
2018-04-19T07:49:40.150Z,52.18
2018-04-19T07:52:09.258Z,52.17
2018-04-19T07:54:38.410Z,51.94
2018-04-19T07:57:06.795Z,51.33
2018-04-19T07:59:35.161Z,51.63
2018-04-19T08:02:03.545Z,50.86
2018-04-19T08:04:33.051Z,50.09
2018-04-19T08:07:02.134Z,50.24
2018-04-19T08:09:30.520Z,49.78
2018-04-19T08:11:58.894Z,49.82
2018-04-19T08:14:27.286Z,49.01
2018-04-19T08:16:55.651Z,48.22
2018-04-19T08:19:24.083Z,48.12
2018-04-19T08:21:53.296Z,47.80
2018-04-19T08:24:21.702Z,47.25
2018-04-19T08:26:50.412Z,47.65
2018-04-19T08:29:18.782Z,47.77
2018-04-19T08:31:47.186Z,46.92
2018-04-19T08:34:15.568Z,47.28
2018-04-19T08:36:43.930Z,47.38
2018-04-19T08:39:12.306Z,46.67
2018-04-19T08:41:40.675Z,45.77
2018-04-19T08:44:09.053Z,45.92
2018-04-19T08:46:37.446Z,45.13
2018-04-19T08:49:06.743Z,45.30
2018-04-19T08:51:35.076Z,46.17
2018-04-19T08:54:04.143Z,46.28
2018-04-19T08:56:33.269Z,45.94
2018-04-19T08:59:01.678Z,45.91
2018-04-19T09:01:30.852Z,44.92
2018-04-19T09:03:59.931Z,44.51
2018-04-19T09:06:28.309Z,44.91
2018-04-19T09:08:56.685Z,44.96
2018-04-19T09:11:25.855Z,45.78
2018-04-19T09:13:54.204Z,45.10
2018-04-19T09:16:22.567Z,45.41
2018-04-19T09:18:50.949Z,45.11
2018-04-19T09:21:19.333Z,45.12
2018-04-19T09:23:47.694Z,46.13
2018-04-19T09:26:16.899Z,45.62
2018-04-19T09:28:45.297Z,45.75
2018-04-19T09:31:13.711Z,45.64
2018-04-19T09:33:42.837Z,45.05
2018-04-19T09:36:11.203Z,45.36
2018-04-19T09:38:40.214Z,44.83
2018-04-19T09:41:08.601Z,44.43
2018-04-19T09:43:37.693Z,44.09
2018-04-19T09:46:06.066Z,44.44
2018-04-19T09:48:35.272Z,44.86
2018-04-19T09:51:03.700Z,44.46
2018-04-19T09:53:32.130Z,42.42
2018-04-19T09:56:00.521Z,43.31
2018-04-19T09:58:28.932Z,42.76
2018-04-19T10:01:02.856Z,43.58
2018-04-19T10:03:37.496Z,42.54
2018-04-19T10:06:09.085Z,42.65
2018-04-19T10:08:37.767Z,42.97
2018-04-19T10:11:06.226Z,43.31
2018-04-19T10:13:34.569Z,42.33
2018-04-19T10:16:03.069Z,41.70
2018-04-19T10:18:31.401Z,40.67
2018-04-19T10:20:59.799Z,41.90
2018-04-19T10:23:28.159Z,41.77
2018-04-19T10:25:56.831Z,41.70
2018-04-19T10:28:25.281Z,40.85
2018-04-19T10:30:53.690Z,41.60
2018-04-19T10:33:22.804Z,40.84
2018-04-19T10:35:51.195Z,41.30
2018-04-19T10:38:19.554Z,40.97
2018-04-19T10:40:48.877Z,40.41
2018-04-19T10:43:17.282Z,41.57
2018-04-19T10:45:46.503Z,40.22
2018-04-19T10:48:14.948Z,41.19
2018-04-19T10:50:43.303Z,40.32
2018-04-19T10:53:11.769Z,40.41
2018-04-19T10:55:40.167Z,39.25
2018-04-19T10:58:08.546Z,39.99
2018-04-19T11:00:39.110Z,39.80
2018-04-19T11:03:08.252Z,41.92
2018-04-19T11:05:36.612Z,40.99
2018-04-19T11:08:05.754Z,39.27
2018-04-19T11:10:37.328Z,39.26
2018-04-19T11:13:05.707Z,39.12
2018-04-19T11:15:34.092Z,39.91
2018-04-19T11:18:04.052Z,38.62
2018-04-19T11:20:32.436Z,39.83
2018-04-19T11:23:01.082Z,39.59
2018-04-19T11:25:30.618Z,39.39
2018-04-19T11:27:58.982Z,39.46
2018-04-19T11:30:27.366Z,37.91
2018-04-19T11:32:55.757Z,38.24
2018-04-19T11:35:25.001Z,38.32
2018-04-19T11:37:53.334Z,37.28
2018-04-19T11:40:21.888Z,37.76
2018-04-19T11:42:51.011Z,37.64
2018-04-19T11:45:19.578Z,37.77
2018-04-19T11:47:47.958Z,37.59
2018-04-19T11:50:16.418Z,36.66
2018-04-19T11:52:45.579Z,36.55
2018-04-19T11:55:13.936Z,36.69
2018-04-19T11:57:43.215Z,36.12
2018-04-19T12:00:13.240Z,35.57
2018-04-19T12:05:17.713Z,35.51
2018-04-19T12:07:46.179Z,35.79
2018-04-19T12:10:15.386Z,36.20
2018-04-19T12:12:46.222Z,35.29
2018-04-19T12:15:14.891Z,34.41
2018-04-19T12:17:43.245Z,34.13
2018-04-19T12:20:12.388Z,35.55
2018-04-19T12:22:41.549Z,33.80
2018-04-19T12:25:09.928Z,34.64
2018-04-19T12:27:38.267Z,32.79
2018-04-19T12:30:06.803Z,33.86
2018-04-19T12:32:37.076Z,34.29
2018-04-19T12:35:07.893Z,33.01
2018-04-19T12:37:36.377Z,32.54
2018-04-19T12:40:04.848Z,32.48
2018-04-19T12:42:33.224Z,32.68
2018-04-19T12:45:01.976Z,31.66
2018-04-19T12:47:31.403Z,31.29
2018-04-19T12:49:59.797Z,31.77
2018-04-19T12:52:28.581Z,32.61
2018-04-19T12:54:56.972Z,32.74
2018-04-19T12:57:26.368Z,32.22
2018-04-19T12:59:54.796Z,31.26
2018-04-19T13:02:24.301Z,31.65
2018-04-19T13:04:52.858Z,30.63
2018-04-19T13:07:22.948Z,31.44
2018-04-19T13:09:52.244Z,31.76
2018-04-19T13:12:20.838Z,32.42
2018-04-19T13:14:50.242Z,32.08
2018-04-19T13:17:19.418Z,31.52
2018-04-19T13:19:49.053Z,31.52
2018-04-19T13:22:17.476Z,31.47
2018-04-19T13:24:46.924Z,29.49
2018-04-19T13:27:16.377Z,29.43
2018-04-19T13:29:44.724Z,29.69
2018-04-19T13:32:13.822Z,29.62
2018-04-19T13:34:42.672Z,29.42
2018-04-19T13:37:11.343Z,29.53
2018-04-19T13:39:41.605Z,30.08
2018-04-19T13:42:13.374Z,30.34
2018-04-19T13:44:41.782Z,29.68
2018-04-19T13:47:10.877Z,29.51
2018-04-19T13:49:40.053Z,28.64
2018-04-19T13:52:08.529Z,28.31
2018-04-19T13:54:39.089Z,28.89
2018-04-19T13:57:09.112Z,29.31
2018-04-19T13:59:41.170Z,29.96
2018-04-19T14:02:11.220Z,29.71
2018-04-19T14:04:40.327Z,29.15
2018-04-19T14:07:08.730Z,29.20
2018-04-19T14:09:38.164Z,29.19
2018-04-19T14:12:08.288Z,29.52
2018-04-19T14:14:37.447Z,29.32
2018-04-19T14:17:05.895Z,29.87
2018-04-19T14:19:37.395Z,28.88
2018-04-19T14:22:06.551Z,28.97
2018-04-19T14:24:34.962Z,29.06
2018-04-19T14:27:03.387Z,29.38
2018-04-19T14:29:32.167Z,30.10
2018-04-19T14:32:00.526Z,31.84
2018-04-19T14:34:29.848Z,29.74
2018-04-19T14:36:58.546Z,29.69
2018-04-19T14:39:26.943Z,30.17
2018-04-19T14:42:06.235Z,30.50
2018-04-19T14:44:37.006Z,30.39
2018-04-19T14:47:05.370Z,31.81
2018-04-19T14:49:34.017Z,31.15
2018-04-19T14:52:02.771Z,31.30
2018-04-19T14:54:31.671Z,31.79
2018-04-19T14:57:00.094Z,31.78
2018-04-19T14:59:29.340Z,31.62
2018-04-19T15:01:57.776Z,31.35
2018-04-19T15:04:27.732Z,31.53
2018-04-19T15:06:56.319Z,32.21
2018-04-19T15:09:24.860Z,32.10
2018-04-19T15:11:53.298Z,30.97
2018-04-19T15:14:22.368Z,29.23
2018-04-19T15:16:50.901Z,30.23
2018-04-19T15:19:23.518Z,29.21
2018-04-19T15:21:51.949Z,29.50
2018-04-19T15:24:20.511Z,29.35
2018-04-19T15:26:49.058Z,29.25
2018-04-19T15:29:17.511Z,29.70
2018-04-19T15:31:47.476Z,28.35
2018-04-19T15:34:15.923Z,28.79
2018-04-19T15:36:44.288Z,28.65
2018-04-19T15:39:13.592Z,28.07
2018-04-19T15:41:42.355Z,28.83
2018-04-19T15:44:10.824Z,28.57
2018-04-19T15:46:50.119Z,28.75
2018-04-19T15:49:18.763Z,28.07
2018-04-19T15:51:48.198Z,28.61
2018-04-19T15:54:17.443Z,27.87
2018-04-19T15:56:46.255Z,27.79
2018-04-19T15:59:14.586Z,26.91
2018-04-19T16:01:55.036Z,27.29
2018-04-19T16:04:23.338Z,27.37
2018-04-19T16:06:51.862Z,26.05
2018-04-19T16:09:20.979Z,26.89
2018-04-19T16:11:52.856Z,26.89
2018-04-19T16:14:19.297Z,26.94
2018-04-19T16:16:48.271Z,27.41
2018-04-19T16:19:18.295Z,27.67
2018-04-19T16:21:46.664Z,27.54
2018-04-19T16:24:16.049Z,28.61
2018-04-19T16:26:44.475Z,28.40
2018-04-19T16:29:12.859Z,27.95
2018-04-19T16:31:41.265Z,28.78
2018-04-19T16:34:09.703Z,28.56
2018-04-19T16:36:38.930Z,28.83
2018-04-19T16:39:07.325Z,29.44
2018-04-19T16:41:36.765Z,29.43
2018-04-19T16:44:05.146Z,29.75
2018-04-19T16:46:33.509Z,31.29
2018-04-19T16:49:04.597Z,32.02
2018-04-19T16:51:34.244Z,31.53
2018-04-19T16:54:04.160Z,31.28
2018-04-19T16:56:33.454Z,33.12
2018-04-19T16:59:01.843Z,33.42
2018-04-19T17:01:30.993Z,32.42
2018-04-19T17:03:59.805Z,33.39
2018-04-19T17:06:29.177Z,33.47
2018-04-19T17:08:58.627Z,33.60
2018-04-19T17:11:27.745Z,34.04
2018-04-19T17:13:56.937Z,34.99
2018-04-19T17:16:25.622Z,34.69
2018-04-19T17:18:54.806Z,34.94
2018-04-19T17:21:23.978Z,35.14
2018-04-19T17:23:52.392Z,35.10
2018-04-19T17:26:20.965Z,35.65
2018-04-19T17:28:50.176Z,35.82
2018-04-19T17:31:19.338Z,36.16
2018-04-19T17:33:49.088Z,36.22
2018-04-19T17:36:18.355Z,36.56
2018-04-19T17:38:48.533Z,37.04
2018-04-19T17:41:17.896Z,37.21
2018-04-19T17:43:47.225Z,37.59
2018-04-19T17:46:15.755Z,37.92
2018-04-19T17:48:44.488Z,38.17
2018-04-19T17:51:13.351Z,38.62
2018-04-19T17:53:42.851Z,38.60
2018-04-19T17:56:11.298Z,38.97
2018-04-19T17:58:39.685Z,38.98
2018-04-19T18:01:08.108Z,39.72
2018-04-19T18:03:37.323Z,39.98
2018-04-19T18:06:06.556Z,40.13
2018-04-19T18:08:34.966Z,40.48
2018-04-19T18:11:03.433Z,41.03
2018-04-19T18:13:31.932Z,41.22
2018-04-19T18:16:01.869Z,41.40
2018-04-19T18:18:31.031Z,41.43
2018-04-19T18:21:00.084Z,40.89
2018-04-19T18:23:28.460Z,41.98
2018-04-19T18:25:57.072Z,41.95
2018-04-19T18:28:25.501Z,42.66
2018-04-19T18:30:54.634Z,42.58
2018-04-19T18:33:23.096Z,42.02
2018-04-19T18:35:51.492Z,42.86
2018-04-19T18:38:20.575Z,43.01
2018-04-19T18:40:48.929Z,42.37
2018-04-19T18:43:18.595Z,43.02
2018-04-19T18:45:47.677Z,42.61
2018-04-19T18:48:16.121Z,43.37
2018-04-19T18:50:44.493Z,42.66
2018-04-19T18:53:13.625Z,42.69
2018-04-19T18:55:42.050Z,42.75
2018-04-19T18:58:10.977Z,42.92
2018-04-19T19:00:39.483Z,42.62
2018-04-19T19:03:08.433Z,43.16
2018-04-19T19:05:37.666Z,42.97
2018-04-19T19:08:06.095Z,42.92
2018-04-19T19:10:34.590Z,43.20
2018-04-19T19:13:03.933Z,43.33
2018-04-19T19:19:18.100Z,43.00
2018-04-19T19:21:46.583Z,43.02
2018-04-19T19:24:15.703Z,43.39
2018-04-19T19:26:45.437Z,43.45
2018-04-19T19:29:14.712Z,43.44
2018-04-19T19:31:43.789Z,43.46
2018-04-19T19:34:12.217Z,43.44
2018-04-19T19:36:41.377Z,43.60
2018-04-19T19:39:11.318Z,43.30
2018-04-19T19:41:39.714Z,43.61
2018-04-19T19:44:09.843Z,43.41
2018-04-19T19:46:38.971Z,43.79
2018-04-19T19:49:08.726Z,43.62
2018-04-19T19:51:40.484Z,43.56
2018-04-19T19:54:09.125Z,43.79
2018-04-19T19:56:42.691Z,43.76
2018-04-19T19:59:12.037Z,43.88
2018-04-19T20:01:40.410Z,44.06
2018-04-19T20:04:09.780Z,44.45
2018-04-19T20:06:39.319Z,44.80
2018-04-19T20:09:08.048Z,44.66
2018-04-19T20:11:37.652Z,44.83
2018-04-19T20:14:06.355Z,44.74
2018-04-19T20:16:35.759Z,44.83
2018-04-19T20:19:05.035Z,45.08
2018-04-19T20:21:33.515Z,45.48
2018-04-19T20:24:01.937Z,45.34
2018-04-19T20:26:31.113Z,45.26
2018-04-19T20:28:59.571Z,45.44
2018-04-19T20:31:27.961Z,45.52
2018-04-19T20:33:56.323Z,45.41
2018-04-19T20:36:24.693Z,45.90
2018-04-19T20:38:53.848Z,46.30
2018-04-19T20:41:23.148Z,46.27
2018-04-19T20:43:52.369Z,46.00
2018-04-19T20:46:21.644Z,46.42
2018-04-19T20:48:51.055Z,46.43
2018-04-19T20:51:19.473Z,46.57
2018-04-19T20:53:47.979Z,46.92
2018-04-19T20:56:16.327Z,46.95
2018-04-19T20:58:44.793Z,47.33
2018-04-19T21:01:13.981Z,47.09
2018-04-19T21:03:43.253Z,47.32
2018-04-19T21:06:12.446Z,47.60
2018-04-19T21:08:42.338Z,47.46
2018-04-19T21:11:11.561Z,47.52
2018-04-19T21:13:41.303Z,47.71
2018-04-19T21:16:09.693Z,47.92
2018-04-19T21:18:38.102Z,47.96
2018-04-19T21:21:06.518Z,47.95
2018-04-19T21:23:34.948Z,48.20
2018-04-19T21:26:03.525Z,48.24
2018-04-19T21:28:32.096Z,48.50
2018-04-19T21:31:00.623Z,48.63
2018-04-19T21:33:29.042Z,48.70
2018-04-19T21:35:57.491Z,48.93
2018-04-19T21:38:26.641Z,48.95
2018-04-19T21:40:54.977Z,48.69
2018-04-19T21:43:24.132Z,48.92
2018-04-19T21:45:52.903Z,48.97
2018-04-19T21:48:21.267Z,49.35
2018-04-19T21:50:49.656Z,49.41
2018-04-19T21:53:18.096Z,49.26
2018-04-19T21:55:46.543Z,49.05
2018-04-19T21:58:14.996Z,49.35
2018-04-19T22:00:43.450Z,49.38
2018-04-19T22:03:11.920Z,49.48
2018-04-19T22:05:41.070Z,49.65
2018-04-19T22:08:09.595Z,49.89
2018-04-19T22:10:37.973Z,50.29
2018-04-19T22:13:07.092Z,50.22
2018-04-19T22:15:35.452Z,50.19
2018-04-19T22:18:04.600Z,50.41
2018-04-19T22:20:32.960Z,50.44
2018-04-19T22:23:01.346Z,50.55
2018-04-19T22:25:29.715Z,50.87
2018-04-19T22:27:58.058Z,50.71
2018-04-19T22:30:27.434Z,50.69
2018-04-19T22:32:55.823Z,50.62
2018-04-19T22:35:25.098Z,50.79
2018-04-19T22:37:53.600Z,50.81
2018-04-19T22:40:22.030Z,50.64
2018-04-19T22:42:50.406Z,50.57
2018-04-19T22:45:18.830Z,51.03
2018-04-19T22:47:47.256Z,51.14
2018-04-19T22:50:16.627Z,51.00
2018-04-19T22:52:44.985Z,51.36
2018-04-19T22:55:13.363Z,51.47
2018-04-19T22:57:42.314Z,51.54
2018-04-19T23:00:10.717Z,51.09
2018-04-19T23:02:39.103Z,51.12
2018-04-19T23:05:07.526Z,51.36
2018-04-19T23:07:36.738Z,51.15
2018-04-19T23:10:05.255Z,51.20
2018-04-19T23:12:33.663Z,51.40
2018-04-19T23:15:02.009Z,51.46
2018-04-19T23:17:30.446Z,51.93
2018-04-19T23:19:59.469Z,51.59
2018-04-19T23:22:35.814Z,51.71
2018-04-19T23:25:04.994Z,51.97
2018-04-19T23:27:33.376Z,52.28
2018-04-19T23:30:01.807Z,52.43
2018-04-19T23:32:30.164Z,52.25
2018-04-19T23:34:58.621Z,52.45
2018-04-19T23:37:27.790Z,52.86
2018-04-19T23:39:56.374Z,52.50
2018-04-19T23:42:24.747Z,52.78
2018-04-19T23:44:53.232Z,52.80
2018-04-19T23:47:21.637Z,52.86
2018-04-19T23:49:50.784Z,53.08
2018-04-19T23:52:19.184Z,53.30
2018-04-19T23:54:47.585Z,53.72
2018-04-19T23:57:15.991Z,53.62
2018-04-19T23:59:45.154Z,53.77
